Arnold, Kansas
Current Conditions -  °F | °C
As of 3:55 AM on Sunday 21 Dec 2014 (Local Time) from KHYS Reporting Station
Overcast Overcast  
Wind Chill: 25°   Ceiling: 100
Heat Index: 25°   Visibility: 0mi
Dew Point: 18°   Wind: 0mph
Humidity: 74%   Direction: NA
Pressure: 29.95"   Gusts: NA
Location:  38.64°N, 100.05°W
Report Text: KHYS 210955Z AUTO 00000KT M1/4SM OVC001 M04/M08 A2995 RMK AO1
Loading
Personal Weather Stations






























Interactive Weather Map New forecast layout! Learn more

10-Day Weather Forecast

Advertisements
Track Severe Weather on mobile